This is the latest recevied weather packets stored in our database for station/object KJ7BRE-1. If no packets are shown the sender has not sent any weather packets the latest 10 day(s).
| Time | Temp. | Humidity | Pressure | Rain* | Wind** | Luminosity | Snow |
|---|---|---|---|---|---|---|---|
| 1788121276 | 21.67° C | 49% | 1018.6 hPa | 0 mm | - | - | - |
| 1788120975 | 21.11° C | 51% | 1018.3 hPa | 0 mm | - | - | - |
| 1788120674 | 20.56° C | 50% | 1018.3 hPa | 0 mm | - | - | - |
| 1788120372 | 20.56° C | 51% | 1018.3 hPa | 0 mm | - | - | - |
| 1788120071 | 21.11° C | 48% | 1018.3 hPa | 0 mm | - | - | - |
| 1788119770 | 21.11° C | 50% | 1018.6 hPa | 0 mm | - | - | - |
| 1788119468 | 20.56° C | 50% | 1018.6 hPa | 0 mm | - | - | - |
| 1788119167 | 20.56° C | 49% | 1018.6 hPa | 0 mm | - | - | - |
| 1788118866 | 21.67° C | 47% | 1018.6 hPa | 0 mm | - | - | - |
| 1788118565 | 21.11° C | 48% | 1018.6 hPa | 0 mm | - | - | - |
| 1788118263 | 21.11° C | 49% | 1019 hPa | 0 mm | - | - | - |
| 1788117962 | 20.56° C | 50% | 1018.6 hPa | 0 mm | - | - | - |
| 1788117661 | 20° C | 50% | 1018.6 hPa | 0 mm | - | - | - |
| 1788117360 | 19.44° C | 53% | 1019 hPa | 0 mm | - | - | - |
| 1788117059 | 18.89° C | 54% | 1019 hPa | 0 mm | - | - | - |
| 1788116758 | 19.44° C | 53% | 1019 hPa | 0 mm | - | - | - |
| 1788116456 | 20° C | 52% | 1019 hPa | 0 mm | - | - | - |
| 1788116155 | 18.89° C | 55% | 1019 hPa | 0 mm | - | - | - |
| 1788115854 | 18.33° C | 55% | 1019 hPa | 0 mm | - | - | - |
| 1788115552 | 18.89° C | 55% | 1019.3 hPa | 0 mm | - | - | - |
| 1788115251 | 19.44° C | 54% | 1019.3 hPa | 0 mm | - | - | - |
| 1788114950 | 20° C | 53% | 1019.3 hPa | 0 mm | - | - | - |
| 1788114649 | 18.89° C | 56% | 1019 hPa | 0 mm | - | - | - |
| 1788114347 | 18.33° C | 61% | 1019.3 hPa | 0 mm | - | - | - |
| 1788114046 | 17.78° C | 62% | 1019.3 hPa | 0 mm | - | - | - |
* Rain latest hour (hover to see other rain measurements)
** Current wind speed in m/s (hover to see current wind gust speed)